sensor_id;sensor_type;location;lat;lon;timestamp;P1;durP1;ratioP1;P2;durP2;ratioP2
67816;SDS011;54614;47.576;7.524;2023-09-19T03:56:33;0.95;;;0.73;;
67816;SDS011;54614;47.576;7.524;2023-09-19T03:59:00;0.65;;;0.65;;
67816;SDS011;54614;47.576;7.524;2023-09-19T04:01:26;0.70;;;0.70;;
67816;SDS011;54614;47.576;7.524;2023-09-19T04:03:53;0.80;;;0.80;;
67816;SDS011;54614;47.576;7.524;2023-09-19T04:06:18;0.80;;;0.80;;
67816;SDS011;54614;47.576;7.524;2023-09-19T04:08:44;0.70;;;0.70;;
67816;SDS011;54614;47.576;7.524;2023-09-19T04:11:12;1.65;;;0.90;;
67816;SDS011;54614;47.576;7.524;2023-09-19T04:13:38;0.70;;;0.70;;
67816;SDS011;54614;47.576;7.524;2023-09-19T04:16:03;0.75;;;0.70;;
67816;SDS011;54614;47.576;7.524;2023-09-19T04:18:29;0.73;;;0.70;;
67816;SDS011;54614;47.576;7.524;2023-09-19T04:21:02;0.70;;;0.70;;
67816;SDS011;54614;47.576;7.524;2023-09-19T04:23:32;0.70;;;0.70;;
67816;SDS011;54614;47.576;7.524;2023-09-19T04:25:58;0.80;;;0.80;;
67816;SDS011;54614;47.576;7.524;2023-09-19T04:28:24;0.80;;;0.80;;
67816;SDS011;54614;47.576;7.524;2023-09-19T04:30:50;0.70;;;0.70;;
67816;SDS011;54614;47.576;7.524;2023-09-19T04:33:15;0.70;;;0.70;;
67816;SDS011;54614;47.576;7.524;2023-09-19T04:35:42;0.80;;;0.80;;
67816;SDS011;54614;47.576;7.524;2023-09-19T04:38:08;0.90;;;0.80;;
67816;SDS011;54614;47.576;7.524;2023-09-19T04:40:34;0.85;;;0.85;;
67816;SDS011;54614;47.576;7.524;2023-09-19T04:43:00;1.40;;;0.80;;
67816;SDS011;54614;47.576;7.524;2023-09-19T04:45:26;0.85;;;0.85;;
67816;SDS011;54614;47.576;7.524;2023-09-19T04:47:53;0.68;;;0.63;;
67816;SDS011;54614;47.576;7.524;2023-09-19T04:50:19;0.70;;;0.70;;
67816;SDS011;54614;47.576;7.524;2023-09-19T04:52:48;0.80;;;0.80;;
67816;SDS011;54614;47.576;7.524;2023-09-19T04:55:16;0.63;;;0.63;;
67816;SDS011;54614;47.576;7.524;2023-09-19T04:57:47;0.70;;;0.70;;
67816;SDS011;54614;47.576;7.524;2023-09-19T05:00:20;0.70;;;0.70;;
67816;SDS011;54614;47.576;7.524;2023-09-19T05:02:49;0.70;;;0.70;;
67816;SDS011;54614;47.576;7.524;2023-09-19T05:05:19;0.60;;;0.60;;
67816;SDS011;54614;47.576;7.524;2023-09-19T05:07:45;0.70;;;0.70;;
67816;SDS011;54614;47.576;7.524;2023-09-19T05:10:12;0.85;;;0.80;;
67816;SDS011;54614;47.576;7.524;2023-09-19T05:12:38;1.85;;;0.80;;
67816;SDS011;54614;47.576;7.524;2023-09-19T05:15:05;1.35;;;0.82;;
67816;SDS011;54614;47.576;7.524;2023-09-19T05:17:33;1.42;;;0.73;;
67816;SDS011;54614;47.576;7.524;2023-09-19T05:19:59;1.88;;;0.68;;
67816;SDS011;54614;47.576;7.524;2023-09-19T05:22:30;0.95;;;0.85;;
67816;SDS011;54614;47.576;7.524;2023-09-19T05:24:57;0.85;;;0.85;;
67816;SDS011;54614;47.576;7.524;2023-09-19T05:27:23;2.28;;;0.90;;
67816;SDS011;54614;47.576;7.524;2023-09-19T05:29:49;1.02;;;0.93;;
67816;SDS011;54614;47.576;7.524;2023-09-19T05:32:18;1.30;;;1.20;;
67816;SDS011;54614;47.576;7.524;2023-09-19T05:34:44;2.55;;;1.02;;
67816;SDS011;54614;47.576;7.524;2023-09-19T05:37:12;1.80;;;1.10;;
67816;SDS011;54614;47.576;7.524;2023-09-19T05:39:38;1.60;;;1.15;;
67816;SDS011;54614;47.576;7.524;2023-09-19T05:42:04;4.03;;;1.20;;
67816;SDS011;54614;47.576;7.524;2023-09-19T05:44:30;2.53;;;1.20;;
67816;SDS011;54614;47.576;7.524;2023-09-19T05:46:57;1.88;;;1.27;;
67816;SDS011;54614;47.576;7.524;2023-09-19T05:49:22;2.60;;;1.38;;
67816;SDS011;54614;47.576;7.524;2023-09-19T05:51:49;1.70;;;1.10;;
67816;SDS011;54614;47.576;7.524;2023-09-19T05:54:18;4.30;;;1.30;;
67816;SDS011;54614;47.576;7.524;2023-09-19T05:56:45;3.50;;;1.30;;
67816;SDS011;54614;47.576;7.524;2023-09-19T05:59:12;3.45;;;1.05;;
67816;SDS011;54614;47.576;7.524;2023-09-19T06:01:40;1.80;;;0.90;;
67816;SDS011;54614;47.576;7.524;2023-09-19T06:04:08;1.42;;;1.30;;
67816;SDS011;54614;47.576;7.524;2023-09-19T06:06:33;2.88;;;1.30;;
67816;SDS011;54614;47.576;7.524;2023-09-19T06:09:03;1.05;;;1.05;;
67816;SDS011;54614;47.576;7.524;2023-09-19T06:11:31;1.13;;;1.00;;
67816;SDS011;54614;47.576;7.524;2023-09-19T06:13:59;2.03;;;1.20;;
67816;SDS011;54614;47.576;7.524;2023-09-19T06:16:27;3.00;;;1.25;;
67816;SDS011;54614;47.576;7.524;2023-09-19T06:18:54;3.97;;;1.40;;
67816;SDS011;54614;47.576;7.524;2023-09-19T06:21:21;4.13;;;0.95;;
67816;SDS011;54614;47.576;7.524;2023-09-19T06:23:52;1.88;;;1.20;;
67816;SDS011;54614;47.576;7.524;2023-09-19T06:26:21;3.83;;;1.20;;
67816;SDS011;54614;47.576;7.524;2023-09-19T06:28:48;1.98;;;1.10;;
67816;SDS011;54614;47.576;7.524;2023-09-19T06:31:14;1.73;;;1.10;;
67816;SDS011;54614;47.576;7.524;2023-09-19T06:33:40;1.10;;;1.00;;
67816;SDS011;54614;47.576;7.524;2023-09-19T06:36:06;1.50;;;1.10;;
67816;SDS011;54614;47.576;7.524;2023-09-19T06:38:32;1.08;;;1.08;;
67816;SDS011;54614;47.576;7.524;2023-09-19T06:41:02;1.20;;;1.10;;
67816;SDS011;54614;47.576;7.524;2023-09-19T06:43:32;1.58;;;1.13;;
67816;SDS011;54614;47.576;7.524;2023-09-19T06:45:58;3.25;;;1.10;;
67816;SDS011;54614;47.576;7.524;2023-09-19T06:48:28;0.90;;;0.90;;
67816;SDS011;54614;47.576;7.524;2023-09-19T06:50:54;1.95;;;1.10;;
67816;SDS011;54614;47.576;7.524;2023-09-19T06:53:23;1.00;;;0.90;;
67816;SDS011;54614;47.576;7.524;2023-09-19T06:55:50;1.00;;;1.00;;
67816;SDS011;54614;47.576;7.524;2023-09-19T06:58:16;4.50;;;1.05;;
67816;SDS011;54614;47.576;7.524;2023-09-19T07:00:42;1.10;;;1.00;;
67816;SDS011;54614;47.576;7.524;2023-09-19T07:03:09;1.95;;;1.10;;
67816;SDS011;54614;47.576;7.524;2023-09-19T07:05:38;1.73;;;1.08;;
67816;SDS011;54614;47.576;7.524;2023-09-19T07:08:06;3.53;;;1.10;;
67816;SDS011;54614;47.576;7.524;2023-09-19T07:10:33;1.95;;;1.10;;
67816;SDS011;54614;47.576;7.524;2023-09-19T07:13:03;1.23;;;1.13;;
67816;SDS011;54614;47.576;7.524;2023-09-19T07:15:38;1.58;;;1.00;;
67816;SDS011;54614;47.576;7.524;2023-09-19T07:18:05;1.70;;;1.15;;
67816;SDS011;54614;47.576;7.524;2023-09-19T07:20:32;2.42;;;1.20;;
67816;SDS011;54614;47.576;7.524;2023-09-19T07:22:59;1.38;;;1.00;;
67816;SDS011;54614;47.576;7.524;2023-09-19T07:25:25;2.75;;;0.93;;
67816;SDS011;54614;47.576;7.524;2023-09-19T07:27:54;1.77;;;1.00;;
67816;SDS011;54614;47.576;7.524;2023-09-19T07:30:24;1.20;;;0.90;;
67816;SDS011;54614;47.576;7.524;2023-09-19T07:32:51;1.20;;;1.10;;
67816;SDS011;54614;47.576;7.524;2023-09-19T07:35:18;2.03;;;0.90;;
67816;SDS011;54614;47.576;7.524;2023-09-19T07:37:45;3.55;;;1.20;;
67816;SDS011;54614;47.576;7.524;2023-09-19T07:40:16;1.75;;;1.25;;
67816;SDS011;54614;47.576;7.524;2023-09-19T07:42:43;1.00;;;0.90;;
67816;SDS011;54614;47.576;7.524;2023-09-19T07:45:09;2.63;;;1.10;;
67816;SDS011;54614;47.576;7.524;2023-09-19T07:47:48;1.67;;;1.20;;
67816;SDS011;54614;47.576;7.524;2023-09-19T07:50:17;2.15;;;1.00;;
67816;SDS011;54614;47.576;7.524;2023-09-19T07:52:49;1.35;;;1.00;;
67816;SDS011;54614;47.576;7.524;2023-09-19T07:55:21;1.83;;;1.20;;
67816;SDS011;54614;47.576;7.524;2023-09-19T07:57:50;1.15;;;1.05;;
67816;SDS011;54614;47.576;7.524;2023-09-19T08:00:17;1.33;;;1.10;;
67816;SDS011;54614;47.576;7.524;2023-09-19T08:02:43;1.15;;;1.05;;
67816;SDS011;54614;47.576;7.524;2023-09-19T08:05:10;1.30;;;0.90;;
67816;SDS011;54614;47.576;7.524;2023-09-19T08:07:40;1.10;;;1.00;;
67816;SDS011;54614;47.576;7.524;2023-09-19T08:10:09;1.20;;;1.10;;
67816;SDS011;54614;47.576;7.524;2023-09-19T08:12:42;2.55;;;1.10;;
67816;SDS011;54614;47.576;7.524;2023-09-19T08:15:12;1.30;;;1.10;;
67816;SDS011;54614;47.576;7.524;2023-09-19T08:17:42;1.08;;;0.98;;
67816;SDS011;54614;47.576;7.524;2023-09-19T08:20:08;2.78;;;1.10;;
67816;SDS011;54614;47.576;7.524;2023-09-19T08:22:42;1.00;;;1.00;;
67816;SDS011;54614;47.576;7.524;2023-09-19T08:25:11;1.05;;;0.95;;
67816;SDS011;54614;47.576;7.524;2023-09-19T08:27:37;0.90;;;0.90;;
67816;SDS011;54614;47.576;7.524;2023-09-19T08:30:03;1.42;;;1.00;;
67816;SDS011;54614;47.576;7.524;2023-09-19T08:32:29;1.35;;;1.02;;
67816;SDS011;54614;47.576;7.524;2023-09-19T08:34:55;0.90;;;0.90;;
67816;SDS011;54614;47.576;7.524;2023-09-19T08:37:20;1.17;;;1.08;;
67816;SDS011;54614;47.576;7.524;2023-09-19T08:39:46;1.30;;;1.20;;
67816;SDS011;54614;47.576;7.524;2023-09-19T08:42:12;1.23;;;1.10;;
67816;SDS011;54614;47.576;7.524;2023-09-19T08:44:38;1.15;;;1.02;;
67816;SDS011;54614;47.576;7.524;2023-09-19T08:47:09;1.67;;;1.10;;
67816;SDS011;54614;47.576;7.524;2023-09-19T08:52:42;3.50;;;1.08;;
67816;SDS011;54614;47.576;7.524;2023-09-19T08:55:12;1.10;;;1.10;;
67816;SDS011;54614;47.576;7.524;2023-09-19T08:57:45;1.52;;;1.00;;
67816;SDS011;54614;47.576;7.524;2023-09-19T09:00:14;2.17;;;1.00;;
67816;SDS011;54614;47.576;7.524;2023-09-19T09:02:46;1.10;;;1.00;;
67816;SDS011;54614;47.576;7.524;2023-09-19T09:05:14;1.10;;;0.98;;
67816;SDS011;54614;47.576;7.524;2023-09-19T09:07:47;1.33;;;1.00;;
67816;SDS011;54614;47.576;7.524;2023-09-19T09:10:19;0.80;;;0.80;;
67816;SDS011;54614;47.576;7.524;2023-09-19T09:12:50;2.35;;;0.90;;
67816;SDS011;54614;47.576;7.524;2023-09-19T09:15:21;0.93;;;0.93;;
67816;SDS011;54614;47.576;7.524;2023-09-19T09:17:51;1.27;;;1.17;;
67816;SDS011;54614;47.576;7.524;2023-09-19T09:20:20;0.90;;;0.90;;
67816;SDS011;54614;47.576;7.524;2023-09-19T09:22:56;0.90;;;0.90;;
67816;SDS011;54614;47.576;7.524;2023-09-19T09:25:47;4.32;;;1.00;;
67816;SDS011;54614;47.576;7.524;2023-09-19T09:28:27;1.27;;;1.17;;
67816;SDS011;54614;47.576;7.524;2023-09-19T09:30:56;1.20;;;1.00;;
67816;SDS011;54614;47.576;7.524;2023-09-19T09:33:28;0.90;;;0.90;;
67816;SDS011;54614;47.576;7.524;2023-09-19T09:35:55;1.42;;;1.10;;
67816;SDS011;54614;47.576;7.524;2023-09-19T09:38:26;1.05;;;0.98;;
67816;SDS011;54614;47.576;7.524;2023-09-19T09:41:10;0.98;;;0.98;;
67816;SDS011;54614;47.576;7.524;2023-09-19T09:43:40;1.00;;;1.00;;
67816;SDS011;54614;47.576;7.524;2023-09-19T09:46:20;1.58;;;1.10;;
67816;SDS011;54614;47.576;7.524;2023-09-19T09:48:59;1.30;;;1.20;;
67816;SDS011;54614;47.576;7.524;2023-09-19T09:51:50;2.40;;;0.88;;
67816;SDS011;54614;47.576;7.524;2023-09-19T09:54:24;1.10;;;0.85;;
67816;SDS011;54614;47.576;7.524;2023-09-19T09:56:58;1.20;;;1.10;;
67816;SDS011;54614;47.576;7.524;2023-09-19T10:04:55;0.90;;;0.90;;
67816;SDS011;54614;47.576;7.524;2023-09-19T10:07:32;1.08;;;1.05;;
67816;SDS011;54614;47.576;7.524;2023-09-19T10:10:01;1.60;;;1.00;;
67816;SDS011;54614;47.576;7.524;2023-09-19T10:12:46;1.15;;;0.80;;
67816;SDS011;54614;47.576;7.524;2023-09-19T10:15:17;5.03;;;1.10;;
67816;SDS011;54614;47.576;7.524;2023-09-19T10:17:49;2.20;;;0.90;;
67816;SDS011;54614;47.576;7.524;2023-09-19T10:20:19;0.93;;;0.90;;
67816;SDS011;54614;47.576;7.524;2023-09-19T10:23:00;0.80;;;0.80;;
67816;SDS011;54614;47.576;7.524;2023-09-19T10:25:41;1.40;;;1.00;;
67816;SDS011;54614;47.576;7.524;2023-09-19T10:28:12;1.00;;;1.00;;
67816;SDS011;54614;47.576;7.524;2023-09-19T10:30:44;0.90;;;0.90;;
67816;SDS011;54614;47.576;7.524;2023-09-19T10:33:15;1.08;;;1.00;;
67816;SDS011;54614;47.576;7.524;2023-09-19T10:35:46;0.80;;;0.80;;
67816;SDS011;54614;47.576;7.524;2023-09-19T10:38:17;1.95;;;1.13;;
67816;SDS011;54614;47.576;7.524;2023-09-19T10:40:48;1.13;;;0.93;;
67816;SDS011;54614;47.576;7.524;2023-09-19T10:43:25;1.02;;;1.00;;
67816;SDS011;54614;47.576;7.524;2023-09-19T10:45:57;0.98;;;0.90;;
67816;SDS011;54614;47.576;7.524;2023-09-19T10:48:32;0.90;;;0.90;;
67816;SDS011;54614;47.576;7.524;2023-09-19T10:51:01;0.90;;;0.90;;
67816;SDS011;54614;47.576;7.524;2023-09-19T10:56:18;0.95;;;0.90;;
67816;SDS011;54614;47.576;7.524;2023-09-19T10:58:53;1.10;;;1.00;;
67816;SDS011;54614;47.576;7.524;2023-09-19T11:01:44;1.15;;;1.05;;
67816;SDS011;54614;47.576;7.524;2023-09-19T11:09:44;0.90;;;0.90;;
67816;SDS011;54614;47.576;7.524;2023-09-19T11:14:56;0.90;;;0.90;;
67816;SDS011;54614;47.576;7.524;2023-09-19T11:17:34;0.88;;;0.88;;
67816;SDS011;54614;47.576;7.524;2023-09-19T11:30:43;1.13;;;0.88;;
67816;SDS011;54614;47.576;7.524;2023-09-19T11:46:34;0.93;;;0.90;;
67816;SDS011;54614;47.576;7.524;2023-09-19T11:49:25;1.00;;;0.90;;
67816;SDS011;54614;47.576;7.524;2023-09-19T11:51:59;0.90;;;0.90;;
67816;SDS011;54614;47.576;7.524;2023-09-19T11:54:30;0.82;;;0.82;;
67816;SDS011;54614;47.576;7.524;2023-09-19T11:56:58;0.80;;;0.80;;
67816;SDS011;54614;47.576;7.524;2023-09-19T11:59:26;1.02;;;0.95;;
67816;SDS011;54614;47.576;7.524;2023-09-19T12:01:54;0.90;;;0.90;;
67816;SDS011;54614;47.576;7.524;2023-09-19T12:04:38;1.30;;;0.98;;
67816;SDS011;54614;47.576;7.524;2023-09-19T12:07:08;1.15;;;0.90;;
67816;SDS011;54614;47.576;7.524;2023-09-19T12:09:39;0.93;;;0.93;;
67816;SDS011;54614;47.576;7.524;2023-09-19T12:12:08;1.00;;;1.00;;
67816;SDS011;54614;47.576;7.524;2023-09-19T12:14:37;0.80;;;0.80;;
67816;SDS011;54614;47.576;7.524;2023-09-19T12:17:04;1.08;;;0.98;;
67816;SDS011;54614;47.576;7.524;2023-09-19T12:19:30;1.23;;;0.82;;
67816;SDS011;54614;47.576;7.524;2023-09-19T12:22:00;0.90;;;0.90;;
67816;SDS011;54614;47.576;7.524;2023-09-19T12:24:31;0.75;;;0.75;;
67816;SDS011;54614;47.576;7.524;2023-09-19T12:27:00;0.90;;;0.90;;
67816;SDS011;54614;47.576;7.524;2023-09-19T12:29:41;1.10;;;1.00;;
67816;SDS011;54614;47.576;7.524;2023-09-19T12:32:14;1.08;;;0.80;;
67816;SDS011;54614;47.576;7.524;2023-09-19T12:34:42;0.90;;;0.90;;
67816;SDS011;54614;47.576;7.524;2023-09-19T12:37:17;0.90;;;0.90;;
67816;SDS011;54614;47.576;7.524;2023-09-19T12:39:50;1.10;;;1.00;;
67816;SDS011;54614;47.576;7.524;2023-09-19T12:42:22;1.00;;;0.90;;
67816;SDS011;54614;47.576;7.524;2023-09-19T12:44:54;1.05;;;0.80;;
67816;SDS011;54614;47.576;7.524;2023-09-19T12:47:22;1.05;;;0.85;;
67816;SDS011;54614;47.576;7.524;2023-09-19T12:52:47;1.02;;;1.00;;
67816;SDS011;54614;47.576;7.524;2023-09-19T12:55:21;0.90;;;0.90;;
67816;SDS011;54614;47.576;7.524;2023-09-19T12:57:59;0.75;;;0.75;;
67816;SDS011;54614;47.576;7.524;2023-09-19T13:00:40;0.82;;;0.80;;
67816;SDS011;54614;47.576;7.524;2023-09-19T13:03:16;0.80;;;0.80;;
67816;SDS011;54614;47.576;7.524;2023-09-19T13:05:57;1.05;;;0.90;;
67816;SDS011;54614;47.576;7.524;2023-09-19T13:08:31;0.90;;;0.90;;
67816;SDS011;54614;47.576;7.524;2023-09-19T13:11:00;0.80;;;0.80;;
67816;SDS011;54614;47.576;7.524;2023-09-19T13:13:32;1.50;;;1.10;;
67816;SDS011;54614;47.576;7.524;2023-09-19T13:15:58;0.80;;;0.80;;
67816;SDS011;54614;47.576;7.524;2023-09-19T13:18:27;0.85;;;0.85;;
67816;SDS011;54614;47.576;7.524;2023-09-19T13:21:10;1.02;;;0.88;;
67816;SDS011;54614;47.576;7.524;2023-09-19T13:23:58;0.80;;;0.80;;
67816;SDS011;54614;47.576;7.524;2023-09-19T13:26:48;0.85;;;0.85;;
67816;SDS011;54614;47.576;7.524;2023-09-19T13:29:14;0.70;;;0.70;;
67816;SDS011;54614;47.576;7.524;2023-09-19T13:31:49;0.90;;;0.90;;
67816;SDS011;54614;47.576;7.524;2023-09-19T13:34:18;0.90;;;0.90;;
67816;SDS011;54614;47.576;7.524;2023-09-19T13:36:45;2.30;;;0.80;;
67816;SDS011;54614;47.576;7.524;2023-09-19T13:39:18;1.65;;;0.75;;
67816;SDS011;54614;47.576;7.524;2023-09-19T13:41:44;1.58;;;0.90;;
67816;SDS011;54614;47.576;7.524;2023-09-19T13:44:12;0.80;;;0.80;;
67816;SDS011;54614;47.576;7.524;2023-09-19T13:46:38;0.70;;;0.70;;
67816;SDS011;54614;47.576;7.524;2023-09-19T13:49:05;0.80;;;0.80;;
67816;SDS011;54614;47.576;7.524;2023-09-19T13:51:31;0.80;;;0.80;;
67816;SDS011;54614;47.576;7.524;2023-09-19T13:53:57;0.70;;;0.70;;
67816;SDS011;54614;47.576;7.524;2023-09-19T13:56:26;1.00;;;0.85;;
67816;SDS011;54614;47.576;7.524;2023-09-19T13:58:56;0.90;;;0.90;;
67816;SDS011;54614;47.576;7.524;2023-09-19T14:01:22;1.15;;;0.90;;
67816;SDS011;54614;47.576;7.524;2023-09-19T14:03:47;0.90;;;0.90;;
67816;SDS011;54614;47.576;7.524;2023-09-19T14:06:15;0.82;;;0.82;;
67816;SDS011;54614;47.576;7.524;2023-09-19T14:08:42;0.73;;;0.73;;
67816;SDS011;54614;47.576;7.524;2023-09-19T14:11:09;1.88;;;0.82;;
67816;SDS011;54614;47.576;7.524;2023-09-19T14:13:35;1.00;;;1.00;;
67816;SDS011;54614;47.576;7.524;2023-09-19T14:16:05;0.80;;;0.80;;
67816;SDS011;54614;47.576;7.524;2023-09-19T14:18:34;0.90;;;0.90;;
67816;SDS011;54614;47.576;7.524;2023-09-19T14:21:03;0.90;;;0.90;;
67816;SDS011;54614;47.576;7.524;2023-09-19T14:23:36;0.80;;;0.80;;
67816;SDS011;54614;47.576;7.524;2023-09-19T14:26:07;1.05;;;0.80;;
67816;SDS011;54614;47.576;7.524;2023-09-19T14:28:34;0.80;;;0.80;;
67816;SDS011;54614;47.576;7.524;2023-09-19T14:31:06;1.02;;;0.93;;
67816;SDS011;54614;47.576;7.524;2023-09-19T14:33:34;0.90;;;0.80;;
67816;SDS011;54614;47.576;7.524;2023-09-19T14:36:07;0.70;;;0.70;;
67816;SDS011;54614;47.576;7.524;2023-09-19T14:38:36;1.40;;;0.80;;
67816;SDS011;54614;47.576;7.524;2023-09-19T14:41:03;0.90;;;0.90;;
67816;SDS011;54614;47.576;7.524;2023-09-19T14:43:31;0.75;;;0.75;;
67816;SDS011;54614;47.576;7.524;2023-09-19T14:46:04;0.70;;;0.70;;
67816;SDS011;54614;47.576;7.524;2023-09-19T14:48:34;1.02;;;0.80;;
67816;SDS011;54614;47.576;7.524;2023-09-19T14:51:04;1.40;;;1.00;;
67816;SDS011;54614;47.576;7.524;2023-09-19T14:53:32;1.48;;;0.80;;
67816;SDS011;54614;47.576;7.524;2023-09-19T14:56:01;1.23;;;0.80;;
67816;SDS011;54614;47.576;7.524;2023-09-19T14:58:31;1.75;;;0.88;;
67816;SDS011;54614;47.576;7.524;2023-09-19T15:01:04;1.55;;;0.80;;
67816;SDS011;54614;47.576;7.524;2023-09-19T15:03:35;0.70;;;0.70;;
67816;SDS011;54614;47.576;7.524;2023-09-19T15:06:05;1.10;;;1.00;;
67816;SDS011;54614;47.576;7.524;2023-09-19T15:08:34;1.38;;;0.90;;
67816;SDS011;54614;47.576;7.524;2023-09-19T15:11:05;1.65;;;0.77;;
67816;SDS011;54614;47.576;7.524;2023-09-19T15:13:35;1.92;;;0.90;;
67816;SDS011;54614;47.576;7.524;2023-09-19T15:16:06;3.47;;;0.98;;
67816;SDS011;54614;47.576;7.524;2023-09-19T15:18:36;2.45;;;0.90;;
67816;SDS011;54614;47.576;7.524;2023-09-19T15:21:04;0.98;;;0.98;;
67816;SDS011;54614;47.576;7.524;2023-09-19T15:23:32;0.85;;;0.85;;
67816;SDS011;54614;47.576;7.524;2023-09-19T15:26:02;0.90;;;0.90;;
67816;SDS011;54614;47.576;7.524;2023-09-19T15:28:30;2.35;;;0.70;;
67816;SDS011;54614;47.576;7.524;2023-09-19T15:31:01;2.88;;;0.85;;
67816;SDS011;54614;47.576;7.524;2023-09-19T15:33:30;2.58;;;0.90;;
67816;SDS011;54614;47.576;7.524;2023-09-19T15:41:32;0.82;;;0.60;;
67816;SDS011;54614;47.576;7.524;2023-09-19T15:44:00;7.63;;;1.27;;
67816;SDS011;54614;47.576;7.524;2023-09-19T15:46:28;6.03;;;1.35;;
67816;SDS011;54614;47.576;7.524;2023-09-19T15:48:56;3.60;;;1.15;;
67816;SDS011;54614;47.576;7.524;2023-09-19T15:51:22;2.00;;;1.10;;
67816;SDS011;54614;47.576;7.524;2023-09-19T15:53:50;2.40;;;1.10;;
67816;SDS011;54614;47.576;7.524;2023-09-19T15:56:18;1.83;;;1.30;;
67816;SDS011;54614;47.576;7.524;2023-09-19T15:58:47;3.85;;;1.35;;
67816;SDS011;54614;47.576;7.524;2023-09-19T16:01:17;2.63;;;1.20;;
67816;SDS011;54614;47.576;7.524;2023-09-19T16:03:50;9.43;;;1.48;;
67816;SDS011;54614;47.576;7.524;2023-09-19T16:06:19;2.60;;;1.13;;
67816;SDS011;54614;47.576;7.524;2023-09-19T16:08:56;2.42;;;1.45;;
67816;SDS011;54614;47.576;7.524;2023-09-19T16:11:25;4.28;;;1.20;;
67816;SDS011;54614;47.576;7.524;2023-09-19T16:13:52;4.20;;;1.50;;
67816;SDS011;54614;47.576;7.524;2023-09-19T16:16:19;2.45;;;1.23;;
67816;SDS011;54614;47.576;7.524;2023-09-19T16:18:48;1.90;;;1.10;;
67816;SDS011;54614;47.576;7.524;2023-09-19T16:21:16;1.88;;;1.40;;
67816;SDS011;54614;47.576;7.524;2023-09-19T16:23:47;1.83;;;1.20;;
67816;SDS011;54614;47.576;7.524;2023-09-19T16:26:18;2.42;;;1.20;;
67816;SDS011;54614;47.576;7.524;2023-09-19T16:28:46;2.28;;;1.50;;
67816;SDS011;54614;47.576;7.524;2023-09-19T16:31:16;1.67;;;1.30;;
67816;SDS011;54614;47.576;7.524;2023-09-19T16:33:43;1.35;;;1.23;;
67816;SDS011;54614;47.576;7.524;2023-09-19T16:36:11;2.05;;;1.40;;
67816;SDS011;54614;47.576;7.524;2023-09-19T16:38:43;4.53;;;1.50;;
67816;SDS011;54614;47.576;7.524;2023-09-19T16:41:12;3.10;;;1.40;;
67816;SDS011;54614;47.576;7.524;2023-09-19T16:43:38;4.72;;;1.50;;
67816;SDS011;54614;47.576;7.524;2023-09-19T16:46:07;3.60;;;1.40;;
67816;SDS011;54614;47.576;7.524;2023-09-19T16:48:38;2.45;;;1.33;;
67816;SDS011;54614;47.576;7.524;2023-09-19T16:51:07;2.22;;;1.30;;
67816;SDS011;54614;47.576;7.524;2023-09-19T16:53:35;2.42;;;1.40;;
67816;SDS011;54614;47.576;7.524;2023-09-19T16:56:06;3.22;;;1.30;;
67816;SDS011;54614;47.576;7.524;2023-09-19T16:58:38;6.07;;;1.50;;
67816;SDS011;54614;47.576;7.524;2023-09-19T17:01:12;5.28;;;1.60;;
67816;SDS011;54614;47.576;7.524;2023-09-19T17:03:41;3.38;;;1.50;;
67816;SDS011;54614;47.576;7.524;2023-09-19T17:06:08;5.28;;;1.40;;
67816;SDS011;54614;47.576;7.524;2023-09-19T17:08:37;2.25;;;1.38;;
67816;SDS011;54614;47.576;7.524;2023-09-19T17:11:05;2.42;;;1.60;;
67816;SDS011;54614;47.576;7.524;2023-09-19T17:13:36;3.58;;;1.40;;
67816;SDS011;54614;47.576;7.524;2023-09-19T17:16:09;4.00;;;1.60;;
67816;SDS011;54614;47.576;7.524;2023-09-19T17:18:37;5.38;;;1.50;;
67816;SDS011;54614;47.576;7.524;2023-09-19T17:21:05;4.32;;;1.58;;
67816;SDS011;54614;47.576;7.524;2023-09-19T17:23:33;2.63;;;1.33;;
67816;SDS011;54614;47.576;7.524;2023-09-19T17:26:03;4.75;;;1.48;;
67816;SDS011;54614;47.576;7.524;2023-09-19T17:28:35;4.22;;;1.40;;
67816;SDS011;54614;47.576;7.524;2023-09-19T17:31:02;5.18;;;1.35;;
67816;SDS011;54614;47.576;7.524;2023-09-19T17:33:40;3.72;;;1.42;;
67816;SDS011;54614;47.576;7.524;2023-09-19T17:39:01;2.38;;;1.30;;
67816;SDS011;54614;47.576;7.524;2023-09-19T17:41:29;1.30;;;1.20;;
67816;SDS011;54614;47.576;7.524;2023-09-19T17:43:57;3.50;;;1.55;;
67816;SDS011;54614;47.576;7.524;2023-09-19T17:46:24;1.73;;;1.60;;
67816;SDS011;54614;47.576;7.524;2023-09-19T17:48:58;1.75;;;1.55;;
67816;SDS011;54614;47.576;7.524;2023-09-19T17:51:28;2.35;;;1.58;;
67816;SDS011;54614;47.576;7.524;2023-09-19T17:53:54;1.45;;;1.30;;
67816;SDS011;54614;47.576;7.524;2023-09-19T17:56:24;1.70;;;1.35;;
67816;SDS011;54614;47.576;7.524;2023-09-19T17:58:50;1.83;;;1.20;;
67816;SDS011;54614;47.576;7.524;2023-09-19T18:01:25;1.52;;;1.42;;
67816;SDS011;54614;47.576;7.524;2023-09-19T18:03:57;2.88;;;1.33;;
67816;SDS011;54614;47.576;7.524;2023-09-19T18:06:23;2.40;;;1.45;;
67816;SDS011;54614;47.576;7.524;2023-09-19T18:08:50;2.75;;;1.50;;
67816;SDS011;54614;47.576;7.524;2023-09-19T18:11:17;1.35;;;1.30;;
67816;SDS011;54614;47.576;7.524;2023-09-19T18:13:47;2.33;;;1.50;;
67816;SDS011;54614;47.576;7.524;2023-09-19T18:16:17;2.28;;;1.55;;
67816;SDS011;54614;47.576;7.524;2023-09-19T18:18:44;2.92;;;1.63;;
67816;SDS011;54614;47.576;7.524;2023-09-19T18:21:14;2.33;;;1.70;;
67816;SDS011;54614;47.576;7.524;2023-09-19T18:23:40;1.70;;;1.60;;
67816;SDS011;54614;47.576;7.524;2023-09-19T18:26:06;2.60;;;1.50;;
67816;SDS011;54614;47.576;7.524;2023-09-19T18:28:33;1.63;;;1.50;;
67816;SDS011;54614;47.576;7.524;2023-09-19T18:31:06;2.17;;;1.85;;
67816;SDS011;54614;47.576;7.524;2023-09-19T18:33:32;1.92;;;1.50;;
67816;SDS011;54614;47.576;7.524;2023-09-19T18:36:01;2.33;;;1.48;;
67816;SDS011;54614;47.576;7.524;2023-09-19T18:38:29;1.88;;;1.60;;
67816;SDS011;54614;47.576;7.524;2023-09-19T18:40:55;1.77;;;1.65;;
67816;SDS011;54614;47.576;7.524;2023-09-19T18:43:20;3.95;;;1.30;;
67816;SDS011;54614;47.576;7.524;2023-09-19T18:45:56;3.10;;;1.40;;
67816;SDS011;54614;47.576;7.524;2023-09-19T18:48:23;1.63;;;1.45;;
67816;SDS011;54614;47.576;7.524;2023-09-19T18:50:50;2.20;;;1.50;;
67816;SDS011;54614;47.576;7.524;2023-09-19T18:53:16;2.13;;;1.50;;
67816;SDS011;54614;47.576;7.524;2023-09-19T18:55:44;3.47;;;1.58;;
67816;SDS011;54614;47.576;7.524;2023-09-19T18:58:10;3.90;;;1.58;;
67816;SDS011;54614;47.576;7.524;2023-09-19T19:00:36;2.65;;;1.50;;
67816;SDS011;54614;47.576;7.524;2023-09-19T19:03:02;1.52;;;1.42;;
67816;SDS011;54614;47.576;7.524;2023-09-19T19:05:33;2.50;;;1.40;;
67816;SDS011;54614;47.576;7.524;2023-09-19T19:08:02;3.00;;;1.63;;
67816;SDS011;54614;47.576;7.524;2023-09-19T19:10:29;2.88;;;1.60;;
67816;SDS011;54614;47.576;7.524;2023-09-19T19:12:54;4.82;;;1.63;;
67816;SDS011;54614;47.576;7.524;2023-09-19T19:15:22;2.70;;;1.50;;
67816;SDS011;54614;47.576;7.524;2023-09-19T19:17:48;5.00;;;1.67;;
67816;SDS011;54614;47.576;7.524;2023-09-19T19:20:14;2.13;;;1.33;;
67816;SDS011;54614;47.576;7.524;2023-09-19T19:22:42;1.73;;;1.45;;
67816;SDS011;54614;47.576;7.524;2023-09-19T19:25:08;2.33;;;1.48;;
67816;SDS011;54614;47.576;7.524;2023-09-19T19:27:34;4.38;;;1.83;;
67816;SDS011;54614;47.576;7.524;2023-09-19T19:30:00;1.75;;;1.50;;
67816;SDS011;54614;47.576;7.524;2023-09-19T19:32:26;2.67;;;1.38;;
67816;SDS011;54614;47.576;7.524;2023-09-19T19:34:53;2.40;;;1.35;;
67816;SDS011;54614;47.576;7.524;2023-09-19T19:37:20;4.53;;;1.40;;
67816;SDS011;54614;47.576;7.524;2023-09-19T19:39:46;2.33;;;1.50;;
67816;SDS011;54614;47.576;7.524;2023-09-19T19:42:12;2.35;;;1.40;;
67816;SDS011;54614;47.576;7.524;2023-09-19T19:44:38;3.75;;;1.40;;
67816;SDS011;54614;47.576;7.524;2023-09-19T19:47:04;1.50;;;1.40;;
67816;SDS011;54614;47.576;7.524;2023-09-19T19:49:29;2.97;;;1.65;;
67816;SDS011;54614;47.576;7.524;2023-09-19T19:51:56;3.17;;;1.50;;